ENGMENSO

Guest
Details From ENGM - Oslo Gardermoen
To ENSO - Stord Sorstokken
Flight Number -
Tags generated
Created
Modified
Stats Distance 179 nm / 331 km
Max Altitude 14,300 ft / 4,359 m
Waypoints 3
Social Downloads 0
Likes 0
Share VATSIM

Download

Looking for another format? Having issues loading an existing format? Contact us
Advertisement - Login to hide

Notes

Basic altitude profile: - Ascent Rate: 2500ft/min - Ascent Speed: 250kts - Cruise Altitude: 35000ft - Cruise Speed: 420kts - Descent Rate: 1500ft/min - Descent Speed: 250kts Options: - Use NATs: yes - Use PACOTS: yes - Use low airways: no - Use high airways: yes

Route

ENGM SOPAR ENSO

ID Type Via Altitude Latitude Longitude Leg Dist Tot Dist Heading (true) Name
O ENGM APT - 0 ft / 0 m 60.19451˚ 11.09900˚ - 0 nm - Oslo Gardermoen
SOPAR FIX - 14,300 ft / 4,359 m 60.29556˚ 7.50000˚ 107 nm 107 nm 275° / 272° -
O ENSO APT - 0 ft / 0 m 59.79192˚ 5.34085˚ 71 nm 178 nm 246° / 244° Stord Sorstokken

Altitude Profile

Advertisement - Login to hide

Weather


0- 5 10 15 20 25 30 35+ Temperature / ° C

Clouds and Precipitation
Forecast for 2017-12-14 18:00 UTC. Updated 5 minutes ago

Ground ~20,000 ft ~40,000 ft Winds

ENGM

Details ICAO ENGM (OSL)
Name Oslo Gardermoen
Region Norway
Timezone Europe/Oslo (UTC+1.0)
Stats Elevation 681 ft / 208 m (AMSL)
Location 60.194507° 11.098998°
Runways 2
Magnetic Variation 3.385° E

METAR

ENGM 141250Z 03006KT 9999 FEW022 BKN034 M03/M04 Q0981 NOSIG

Decode

TAF

TAF ENGM 141100Z 1412/1512 02008KT 9000 -SN SCT008 BKN015 TEMPO 1412/1414 2000 -FZDZ BR OVC004 TEMPO 1414/1424 4000 -SN SCT005 BKN012

Decode

Departure Runways

ID Width Length Bearing (true) Bearing (mag) Surface Threshold Offset Overrun Length
01L 148 ft / 45 m 12,144 ft / 3,702 m 15.89° 12.51° Concrete 0 ft / 0 m 499 ft / 152 m
01R 148 ft / 45 m 10,014 ft / 3,052 m 15.89° 12.51° Concrete 0 ft / 0 m 499 ft / 152 m
19L 148 ft / 45 m 10,014 ft / 3,052 m 195.91° 192.53° Concrete 0 ft / 0 m 466 ft / 142 m
19R 148 ft / 45 m 12,144 ft / 3,702 m 195.91° 192.53° Concrete 0 ft / 0 m 482 ft / 147 m

ENSO

Details ICAO ENSO (SRP)
Name Stord Sorstokken
Region Norway
Timezone Europe/Oslo (UTC+1.0)
Stats Elevation 161 ft / 49 m (AMSL)
Location 59.791925° 5.340850°
Runways 1
Magnetic Variation 0.920° E

METAR

ENSO 141220Z VRB01KT 9999 SCT050 BKN090 03/02 Q0978

Decode

TAF

Not found

Destination Runways

ID Width Length Bearing (true) Bearing (mag) Surface Threshold Offset Overrun Length
14 98 ft / 30 m 4,779 ft / 1,457 m 144.82° 143.90° Asphalt 230 ft / 70 m 0 ft / 0 m
32 98 ft / 30 m 4,779 ft / 1,457 m 324.84° 323.92° Asphalt 230 ft / 70 m 0 ft / 0 m

Approach Navaids

Runway Type Ident Frequency Range Bearing (true) Bearing (mag) Slope Elevation
14 Localiser SRD 110.10 MHz 18 nm / 33 km 144.99° 144.07° - 151 ft / 46 m (AMSL)